ADDS TAF Board (Experimental) INFO Settings
IDs: Format: Expanded Condensed

KFLL - Ft Lauderdale-Hollyw, FL, US

Issued at 2320 UTC 28 Jun 2016
Updated at: 0001 UTC 29 Jun 2016
Time2353Z 29/01Z 29/02Z 29/03Z 29/04Z 29/05Z 29/06Z 29/07Z 29/08Z 29/09Z 29/10Z 29/11Z 29/12Z 29/13Z
Type OBS PRVL PRVL PRVL PRVL PRVL PRVL PRVL PRVL PRVL PRVL PRVL PRVL PRVL
VIS 10 >6 >6 >6 >6 >6 >6 >6 >6 >6 >6 >6 >6 >6
CIG -- -- -- -- -- -- -- -- -- -- -- -- -- --
Cover SCT FEW FEW FEW FEW FEW FEW FEW FEW FEW FEW FEW FEW FEW
FltCat VFR VFR VFR VFR VFR VFR VFR VFR VFR VFR VFR VFR VFR VFR
WX -- -- -- -- -- -- -- -- -- -- -- -- -- --
WDir 160 VRB VRB VRB VRB VRB VRB VRB VRB VRB VRB VRB VRB VRB
WSpd 9 3 3 3 3 3 3 3 3 3 3 3 3 3
WGst -- -- -- -- -- -- -- -- -- -- -- -- -- --
R10/28
XWnd -8 VRB VRB VRB VRB VRB VRB VRB VRB VRB VRB VRB VRB VRB
HWnd 3 VRB VRB VRB VRB VRB VRB VRB VRB VRB VRB VRB VRB VRB

NOTE: TEMPO conditions in [brackets]. Keep in mind TEMPO conditions might be better (lower impact) than prevailing conditions.

Raw TAF
KFLL 282320Z 2900/2924 14010KT P6SM VCTS FEW030CB SCT100 SCT250
  FM290100 VRB03KT P6SM FEW025
  FM291400 VRB05KT P6SM VCSH SCT025 SCT250
  FM291700 13010KT P6SM VCTS SCT030CB SCT050 SCT250


Raw METAR
KFLL 282353Z 16009KT 10SM FEW030 FEW070 SCT250 29/22 A2997 RMK AO2 SLP148 T02890222 10317 20289 53002
KFLL 282253Z 14011KT 10SM FEW031 FEW100 SCT250 29/23 A2997 RMK AO2 SLP147 T02940228
KFLL 282153Z 14012KT 10SM FEW031 FEW100 SCT250 31/22 A2996 RMK AO2 SLP146 T03060217

METAR Board
Radar Display
Forecast Discussion

TAF Board Legend

Potential Impact
Threat None Slight Moderate High
Visibility (sm) ≥5.1 5.1>X≥3 3>X≥1 <1
Ceiling (100 ft) ≥30.1 30.1>X≥10 10>X≥5 <5
Wind Speed (kt) <10 10≤X<20 20≤X<30 ≥30
Wind Gust (kt) <15 15≤X<25 25≤X<35 ≥35
Weather No Wx Reported VCTS,-TS,-FZRA,SN TS,FZRA +TS,+FZRA,+SN